sensor_id;sensor_type;location;lat;lon;timestamp;pressure;altitude;pressure_sealevel;temperature;humidity
68376;BME280;55318;52.068;5.188;2023-02-23T00:01:18;101346.0;;;9.65;100.0
68376;BME280;55318;52.068;5.188;2023-02-23T00:02:55;101350.0;;;9.63;100.0
68376;BME280;55318;52.068;5.188;2023-02-23T00:04:32;101345.0;;;9.57;100.0
68376;BME280;55318;52.068;5.188;2023-02-23T00:07:46;101346.0;;;9.53;100.0
68376;BME280;55318;52.068;5.188;2023-02-23T00:09:22;101351.0;;;9.56;100.0
68376;BME280;55318;52.068;5.188;2023-02-23T00:10:59;101350.0;;;9.51;100.0
68376;BME280;55318;52.068;5.188;2023-02-23T00:12:35;101345.0;;;9.5;100.0
68376;BME280;55318;52.068;5.188;2023-02-23T00:15:47;101347.0;;;9.48;100.0
68376;BME280;55318;52.068;5.188;2023-02-23T00:17:23;101346.0;;;9.48;100.0
68376;BME280;55318;52.068;5.188;2023-02-23T00:19:01;101348.0;;;9.48;100.0
68376;BME280;55318;52.068;5.188;2023-02-23T00:22:19;101342.0;;;9.44;100.0
68376;BME280;55318;52.068;5.188;2023-02-23T00:23:57;101339.0;;;9.48;100.0
68376;BME280;55318;52.068;5.188;2023-02-23T00:25:37;101342.0;;;9.42;100.0
68376;BME280;55318;52.068;5.188;2023-02-23T00:27:20;101339.0;;;9.39;100.0
68376;BME280;55318;52.068;5.188;2023-02-23T00:30:33;101337.0;;;9.35;100.0
68376;BME280;55318;52.068;5.188;2023-02-23T00:32:11;101333.0;;;9.38;100.0
68376;BME280;55318;52.068;5.188;2023-02-23T00:33:51;101335.0;;;9.58;100.0
68376;BME280;55318;52.068;5.188;2023-02-23T00:37:04;101335.0;;;9.65;100.0
68376;BME280;55318;52.068;5.188;2023-02-23T00:38:40;101341.0;;;9.8;100.0
68376;BME280;55318;52.068;5.188;2023-02-23T00:40:19;101335.0;;;9.66;100.0
68376;BME280;55318;52.068;5.188;2023-02-23T00:41:56;101343.0;;;9.8;100.0
68376;BME280;55318;52.068;5.188;2023-02-23T00:45:12;101339.0;;;9.64;100.0
68376;BME280;55318;52.068;5.188;2023-02-23T00:46:51;101334.0;;;9.53;100.0
68376;BME280;55318;52.068;5.188;2023-02-23T00:48:28;101338.0;;;9.63;100.0
68376;BME280;55318;52.068;5.188;2023-02-23T00:51:42;101332.0;;;9.69;100.0
68376;BME280;55318;52.068;5.188;2023-02-23T00:53:18;101334.0;;;9.59;100.0
68376;BME280;55318;52.068;5.188;2023-02-23T00:54:55;101336.0;;;9.55;100.0
68376;BME280;55318;52.068;5.188;2023-02-23T00:56:32;101332.0;;;9.4;100.0
68376;BME280;55318;52.068;5.188;2023-02-23T00:59:45;101334.0;;;9.6;100.0
68376;BME280;55318;52.068;5.188;2023-02-23T01:01:22;101330.0;;;9.49;100.0
68376;BME280;55318;52.068;5.188;2023-02-23T01:02:58;101331.0;;;9.42;100.0
68376;BME280;55318;52.068;5.188;2023-02-23T01:06:12;101326.0;;;9.39;100.0
68376;BME280;55318;52.068;5.188;2023-02-23T01:07:48;101326.0;;;9.3;100.0
68376;BME280;55318;52.068;5.188;2023-02-23T01:09:27;101326.0;;;9.3;100.0
68376;BME280;55318;52.068;5.188;2023-02-23T01:12:43;101327.0;;;9.26;100.0
68376;BME280;55318;52.068;5.188;2023-02-23T01:14:21;101330.0;;;9.34;100.0
68376;BME280;55318;52.068;5.188;2023-02-23T01:15:58;101330.0;;;9.4;100.0
68376;BME280;55318;52.068;5.188;2023-02-23T01:17:34;101335.0;;;9.48;100.0
68376;BME280;55318;52.068;5.188;2023-02-23T01:20:49;101334.0;;;9.31;100.0
68376;BME280;55318;52.068;5.188;2023-02-23T01:22:25;101336.0;;;9.27;100.0
68376;BME280;55318;52.068;5.188;2023-02-23T01:24:03;101338.0;;;9.24;100.0
68376;BME280;55318;52.068;5.188;2023-02-23T01:27:19;101332.0;;;9.21;100.0
68376;BME280;55318;52.068;5.188;2023-02-23T01:28:57;101334.0;;;9.17;100.0
68376;BME280;55318;52.068;5.188;2023-02-23T01:30:35;101334.0;;;9.1;100.0
68376;BME280;55318;52.068;5.188;2023-02-23T01:32:11;101336.0;;;9.11;100.0
68376;BME280;55318;52.068;5.188;2023-02-23T01:35:28;101340.0;;;9.13;100.0
68376;BME280;55318;52.068;5.188;2023-02-23T01:37:04;101338.0;;;9.23;100.0
68376;BME280;55318;52.068;5.188;2023-02-23T01:38:41;101339.0;;;9.14;100.0
68376;BME280;55318;52.068;5.188;2023-02-23T01:42:09;101341.0;;;9.18;100.0
68376;BME280;55318;52.068;5.188;2023-02-23T01:43:56;101341.0;;;9.15;100.0
68376;BME280;55318;52.068;5.188;2023-02-23T01:45:34;101340.0;;;9.1;100.0
68376;BME280;55318;52.068;5.188;2023-02-23T01:47:13;101340.0;;;9.18;100.0
68376;BME280;55318;52.068;5.188;2023-02-23T01:48:50;101343.0;;;9.16;100.0
68376;BME280;55318;52.068;5.188;2023-02-23T01:52:15;101338.0;;;9.14;100.0
68376;BME280;55318;52.068;5.188;2023-02-23T01:53:57;101340.0;;;9.13;100.0
68376;BME280;55318;52.068;5.188;2023-02-23T01:55:35;101337.0;;;9.17;100.0
68376;BME280;55318;52.068;5.188;2023-02-23T01:57:13;101338.0;;;9.18;100.0
68376;BME280;55318;52.068;5.188;2023-02-23T02:00:36;101337.0;;;9.32;100.0
68376;BME280;55318;52.068;5.188;2023-02-23T02:02:13;101337.0;;;9.22;100.0
68376;BME280;55318;52.068;5.188;2023-02-23T02:03:54;101341.0;;;9.19;100.0
68376;BME280;55318;52.068;5.188;2023-02-23T02:07:10;101342.0;;;9.24;100.0
68376;BME280;55318;52.068;5.188;2023-02-23T02:08:51;101344.0;;;9.23;100.0
68376;BME280;55318;52.068;5.188;2023-02-23T02:10:46;101344.0;;;9.27;100.0
68376;BME280;55318;52.068;5.188;2023-02-23T02:12:22;101347.0;;;9.28;100.0
68376;BME280;55318;52.068;5.188;2023-02-23T02:14:00;101347.0;;;9.39;100.0
68376;BME280;55318;52.068;5.188;2023-02-23T02:17:45;101348.0;;;9.28;100.0
68376;BME280;55318;52.068;5.188;2023-02-23T02:19:47;101352.0;;;9.31;100.0
68376;BME280;55318;52.068;5.188;2023-02-23T02:23:52;101355.0;;;9.23;100.0
68376;BME280;55318;52.068;5.188;2023-02-23T02:27:40;101353.0;;;9.24;100.0
68376;BME280;55318;52.068;5.188;2023-02-23T02:29:50;101353.0;;;9.24;100.0
68376;BME280;55318;52.068;5.188;2023-02-23T02:32:40;101360.0;;;9.18;100.0
68376;BME280;55318;52.068;5.188;2023-02-23T02:36:45;101355.0;;;9.23;100.0
68376;BME280;55318;52.068;5.188;2023-02-23T02:39:42;101348.0;;;9.27;100.0
68376;BME280;55318;52.068;5.188;2023-02-23T02:41:28;101351.0;;;9.26;100.0
68376;BME280;55318;52.068;5.188;2023-02-23T02:45:00;101346.0;;;9.27;100.0
68376;BME280;55318;52.068;5.188;2023-02-23T02:46:45;101349.0;;;9.31;100.0
68376;BME280;55318;52.068;5.188;2023-02-23T02:48:32;101347.0;;;9.36;100.0
68376;BME280;55318;52.068;5.188;2023-02-23T02:50:16;101344.0;;;9.3;100.0
68376;BME280;55318;52.068;5.188;2023-02-23T02:52:00;101346.0;;;9.3;100.0
68376;BME280;55318;52.068;5.188;2023-02-23T02:53:47;101347.0;;;9.31;100.0
68376;BME280;55318;52.068;5.188;2023-02-23T02:57:09;101343.0;;;9.33;100.0
68376;BME280;55318;52.068;5.188;2023-02-23T02:58:50;101346.0;;;9.31;100.0
68376;BME280;55318;52.068;5.188;2023-02-23T04:17:41;101370.0;;;9.24;100.0
68376;BME280;55318;52.068;5.188;2023-02-23T04:20:56;101373.0;;;9.17;100.0
68376;BME280;55318;52.068;5.188;2023-02-23T04:22:34;101377.0;;;9.3;100.0
68376;BME280;55318;52.068;5.188;2023-02-23T04:24:11;101375.0;;;9.31;100.0
68376;BME280;55318;52.068;5.188;2023-02-23T04:25:47;101380.0;;;9.23;100.0
68376;BME280;55318;52.068;5.188;2023-02-23T04:29:00;101381.0;;;9.21;100.0
68376;BME280;55318;52.068;5.188;2023-02-23T04:30:36;101382.0;;;9.3;100.0
68376;BME280;55318;52.068;5.188;2023-02-23T04:32:14;101388.0;;;9.22;100.0
68376;BME280;55318;52.068;5.188;2023-02-23T04:35:29;101385.0;;;9.23;100.0
68376;BME280;55318;52.068;5.188;2023-02-23T04:37:06;101386.0;;;9.27;100.0
68376;BME280;55318;52.068;5.188;2023-02-23T04:38:43;101386.0;;;9.26;100.0
68376;BME280;55318;52.068;5.188;2023-02-23T04:41:55;101388.0;;;9.31;100.0
68376;BME280;55318;52.068;5.188;2023-02-23T04:43:31;101388.0;;;9.49;100.0
68376;BME280;55318;52.068;5.188;2023-02-23T04:45:08;101383.0;;;9.33;100.0
68376;BME280;55318;52.068;5.188;2023-02-23T04:46:45;101386.0;;;9.48;100.0
68376;BME280;55318;52.068;5.188;2023-02-23T04:49:59;101387.0;;;9.59;100.0
68376;BME280;55318;52.068;5.188;2023-02-23T04:51:36;101388.0;;;9.42;100.0
68376;BME280;55318;52.068;5.188;2023-02-23T04:53:13;101387.0;;;9.48;100.0
68376;BME280;55318;52.068;5.188;2023-02-23T04:56:25;101389.0;;;9.43;100.0
68376;BME280;55318;52.068;5.188;2023-02-23T04:58:02;101393.0;;;9.4;100.0
68376;BME280;55318;52.068;5.188;2023-02-23T04:59:38;101391.0;;;9.48;100.0
68376;BME280;55318;52.068;5.188;2023-02-23T05:02:51;101393.0;;;9.38;100.0
68376;BME280;55318;52.068;5.188;2023-02-23T05:04:27;101395.0;;;9.31;100.0
68376;BME280;55318;52.068;5.188;2023-02-23T05:06:04;101394.0;;;9.49;100.0
68376;BME280;55318;52.068;5.188;2023-02-23T05:07:41;101393.0;;;9.47;100.0
68376;BME280;55318;52.068;5.188;2023-02-23T05:10:53;101398.0;;;9.38;100.0
68376;BME280;55318;52.068;5.188;2023-02-23T05:12:30;101395.0;;;9.3;100.0
68376;BME280;55318;52.068;5.188;2023-02-23T05:14:07;101397.0;;;9.28;100.0
68376;BME280;55318;52.068;5.188;2023-02-23T05:17:20;101398.0;;;9.44;100.0
68376;BME280;55318;52.068;5.188;2023-02-23T05:18:56;101405.0;;;9.39;100.0
68376;BME280;55318;52.068;5.188;2023-02-23T05:20:33;101405.0;;;9.26;100.0
68376;BME280;55318;52.068;5.188;2023-02-23T05:23:48;101403.0;;;9.39;100.0
68376;BME280;55318;52.068;5.188;2023-02-23T05:25:24;101400.0;;;9.42;100.0
68376;BME280;55318;52.068;5.188;2023-02-23T05:27:01;101402.0;;;9.3;100.0
68376;BME280;55318;52.068;5.188;2023-02-23T05:28:38;101405.0;;;9.31;100.0
68376;BME280;55318;52.068;5.188;2023-02-23T05:31:52;101407.0;;;9.32;100.0
68376;BME280;55318;52.068;5.188;2023-02-23T05:33:28;101407.0;;;9.36;100.0
68376;BME280;55318;52.068;5.188;2023-02-23T05:35:05;101410.0;;;9.58;100.0
68376;BME280;55318;52.068;5.188;2023-02-23T05:38:19;101406.0;;;9.35;100.0
68376;BME280;55318;52.068;5.188;2023-02-23T05:39:56;101406.0;;;9.34;100.0
68376;BME280;55318;52.068;5.188;2023-02-23T05:41:33;101406.0;;;9.65;100.0
68376;BME280;55318;52.068;5.188;2023-02-23T05:43:09;101412.0;;;9.64;100.0
68376;BME280;55318;52.068;5.188;2023-02-23T05:46:22;101411.0;;;9.61;100.0
68376;BME280;55318;52.068;5.188;2023-02-23T05:48:01;101413.0;;;9.56;100.0
68376;BME280;55318;52.068;5.188;2023-02-23T05:49:38;101413.0;;;9.4;100.0
68376;BME280;55318;52.068;5.188;2023-02-23T05:52:53;101415.0;;;9.28;100.0
68376;BME280;55318;52.068;5.188;2023-02-23T05:54:29;101411.0;;;9.23;100.0
68376;BME280;55318;52.068;5.188;2023-02-23T05:56:07;101415.0;;;9.24;100.0
68376;BME280;55318;52.068;5.188;2023-02-23T05:59:22;101417.0;;;9.4;100.0
68376;BME280;55318;52.068;5.188;2023-02-23T06:00:58;101419.0;;;9.3;100.0
68376;BME280;55318;52.068;5.188;2023-02-23T06:02:35;101422.0;;;9.15;100.0
68376;BME280;55318;52.068;5.188;2023-02-23T06:04:12;101422.0;;;9.47;100.0
68376;BME280;55318;52.068;5.188;2023-02-23T06:07:26;101425.0;;;9.5;100.0
68376;BME280;55318;52.068;5.188;2023-02-23T06:09:03;101426.0;;;9.55;100.0
68376;BME280;55318;52.068;5.188;2023-02-23T06:10:39;101426.0;;;9.46;100.0
68376;BME280;55318;52.068;5.188;2023-02-23T06:13:51;101431.0;;;9.67;100.0
68376;BME280;55318;52.068;5.188;2023-02-23T06:15:27;101430.0;;;9.65;100.0
68376;BME280;55318;52.068;5.188;2023-02-23T06:17:04;101430.0;;;9.53;100.0
68376;BME280;55318;52.068;5.188;2023-02-23T06:18:41;101430.0;;;9.36;100.0
68376;BME280;55318;52.068;5.188;2023-02-23T06:21:55;101430.0;;;9.4;100.0
68376;BME280;55318;52.068;5.188;2023-02-23T06:23:32;101432.0;;;9.53;100.0
68376;BME280;55318;52.068;5.188;2023-02-23T06:25:11;101432.0;;;9.35;100.0
68376;BME280;55318;52.068;5.188;2023-02-23T06:28:26;101435.0;;;9.71;100.0
68376;BME280;55318;52.068;5.188;2023-02-23T06:30:03;101439.0;;;9.56;100.0
68376;BME280;55318;52.068;5.188;2023-02-23T06:31:39;101438.0;;;9.31;100.0
68376;BME280;55318;52.068;5.188;2023-02-23T06:34:53;101443.0;;;9.23;100.0
68376;BME280;55318;52.068;5.188;2023-02-23T06:36:29;101446.0;;;9.14;100.0
68376;BME280;55318;52.068;5.188;2023-02-23T06:38:05;101449.0;;;9.09;100.0
68376;BME280;55318;52.068;5.188;2023-02-23T06:39:41;101446.0;;;9.14;100.0
68376;BME280;55318;52.068;5.188;2023-02-23T06:42:53;101449.0;;;9.13;100.0
68376;BME280;55318;52.068;5.188;2023-02-23T06:44:30;101449.0;;;9.05;100.0
68376;BME280;55318;52.068;5.188;2023-02-23T06:46:06;101455.0;;;9.06;100.0
68376;BME280;55318;52.068;5.188;2023-02-23T06:49:20;101453.0;;;9.01;100.0
68376;BME280;55318;52.068;5.188;2023-02-23T06:50:57;101455.0;;;9.01;100.0
68376;BME280;55318;52.068;5.188;2023-02-23T06:52:33;101455.0;;;8.98;100.0
68376;BME280;55318;52.068;5.188;2023-02-23T06:55:46;101461.0;;;9.01;100.0
68376;BME280;55318;52.068;5.188;2023-02-23T06:57:23;101456.0;;;9.06;100.0
68376;BME280;55318;52.068;5.188;2023-02-23T06:58:59;101456.0;;;8.99;100.0
68376;BME280;55318;52.068;5.188;2023-02-23T07:00:35;101459.0;;;9.19;100.0
68376;BME280;55318;52.068;5.188;2023-02-23T07:03:48;101462.0;;;9.49;100.0
68376;BME280;55318;52.068;5.188;2023-02-23T07:05:24;101466.0;;;9.69;100.0
68376;BME280;55318;52.068;5.188;2023-02-23T07:07:02;101467.0;;;9.64;100.0
68376;BME280;55318;52.068;5.188;2023-02-23T07:10:14;101469.0;;;9.64;100.0
68376;BME280;55318;52.068;5.188;2023-02-23T07:11:50;101477.0;;;9.81;100.0
68376;BME280;55318;52.068;5.188;2023-02-23T07:13:27;101475.0;;;9.68;99.66
68376;BME280;55318;52.068;5.188;2023-02-23T07:16:40;101478.0;;;9.66;100.0
68376;BME280;55318;52.068;5.188;2023-02-23T07:18:16;101483.0;;;9.73;100.0
68376;BME280;55318;52.068;5.188;2023-02-23T07:19:53;101487.0;;;9.89;99.18
68376;BME280;55318;52.068;5.188;2023-02-23T07:21:31;101487.0;;;9.72;99.93
68376;BME280;55318;52.068;5.188;2023-02-23T07:24:45;101500.0;;;9.97;98.85
68376;BME280;55318;52.068;5.188;2023-02-23T07:26:22;101500.0;;;9.93;98.67
68376;BME280;55318;52.068;5.188;2023-02-23T07:27:59;101502.0;;;9.98;97.98
68376;BME280;55318;52.068;5.188;2023-02-23T07:31:13;101506.0;;;10.14;97.07
68376;BME280;55318;52.068;5.188;2023-02-23T07:32:50;101512.0;;;10.15;96.97
68376;BME280;55318;52.068;5.188;2023-02-23T07:34:27;101517.0;;;10.05;97.19
68376;BME280;55318;52.068;5.188;2023-02-23T07:37:41;101520.0;;;10.06;97.85
68376;BME280;55318;52.068;5.188;2023-02-23T07:39:17;101523.0;;;10.18;97.18
68376;BME280;55318;52.068;5.188;2023-02-23T07:40:53;101524.0;;;10.23;96.87
68376;BME280;55318;52.068;5.188;2023-02-23T07:42:30;101524.0;;;10.14;97.39
68376;BME280;55318;52.068;5.188;2023-02-23T07:45:43;101525.0;;;10.26;97.0
68376;BME280;55318;52.068;5.188;2023-02-23T07:47:19;101531.0;;;10.15;97.38
68376;BME280;55318;52.068;5.188;2023-02-23T07:48:55;101538.0;;;10.21;97.08
68376;BME280;55318;52.068;5.188;2023-02-23T07:52:08;101531.0;;;10.3;96.73
68376;BME280;55318;52.068;5.188;2023-02-23T07:53:45;101536.0;;;10.33;96.8
68376;BME280;55318;52.068;5.188;2023-02-23T07:55:21;101537.0;;;10.06;98.17
68376;BME280;55318;52.068;5.188;2023-02-23T07:58:35;101538.0;;;10.15;97.88
68376;BME280;55318;52.068;5.188;2023-02-23T08:00:13;101542.0;;;10.14;97.9
68376;BME280;55318;52.068;5.188;2023-02-23T08:01:50;101541.0;;;10.21;97.8
68376;BME280;55318;52.068;5.188;2023-02-23T08:03:28;101542.0;;;10.13;98.51
68376;BME280;55318;52.068;5.188;2023-02-23T08:06:41;101542.0;;;10.33;97.01
68376;BME280;55318;52.068;5.188;2023-02-23T08:08:18;101544.0;;;10.29;96.91
68376;BME280;55318;52.068;5.188;2023-02-23T08:09:54;101546.0;;;10.34;96.46
68376;BME280;55318;52.068;5.188;2023-02-23T08:13:07;101548.0;;;10.29;96.55
68376;BME280;55318;52.068;5.188;2023-02-23T08:14:43;101556.0;;;10.3;96.47
68376;BME280;55318;52.068;5.188;2023-02-23T08:16:19;101555.0;;;10.51;95.59
68376;BME280;55318;52.068;5.188;2023-02-23T08:19:33;101559.0;;;10.46;96.03
68376;BME280;55318;52.068;5.188;2023-02-23T08:21:10;101563.0;;;10.53;95.15
68376;BME280;55318;52.068;5.188;2023-02-23T08:22:46;101567.0;;;10.56;95.23
68376;BME280;55318;52.068;5.188;2023-02-23T08:24:22;101567.0;;;10.4;96.46
68376;BME280;55318;52.068;5.188;2023-02-23T08:27:37;101573.0;;;10.27;96.41
68376;BME280;55318;52.068;5.188;2023-02-23T08:29:14;101571.0;;;10.54;95.8
68376;BME280;55318;52.068;5.188;2023-02-23T08:30:52;101577.0;;;10.47;95.34
68376;BME280;55318;52.068;5.188;2023-02-23T08:34:09;101575.0;;;10.45;95.32
68376;BME280;55318;52.068;5.188;2023-02-23T08:35:46;101576.0;;;10.5;95.16
68376;BME280;55318;52.068;5.188;2023-02-23T08:37:22;101576.0;;;10.49;95.5
68376;BME280;55318;52.068;5.188;2023-02-23T08:38:59;101575.0;;;10.38;95.66
68376;BME280;55318;52.068;5.188;2023-02-23T08:42:13;101576.0;;;10.4;95.19
68376;BME280;55318;52.068;5.188;2023-02-23T08:43:49;101578.0;;;10.52;94.37
68376;BME280;55318;52.068;5.188;2023-02-23T08:45:28;101580.0;;;10.52;94.6
68376;BME280;55318;52.068;5.188;2023-02-23T08:48:41;101575.0;;;10.49;95.36
68376;BME280;55318;52.068;5.188;2023-02-23T08:50:17;101577.0;;;10.33;95.72
68376;BME280;55318;52.068;5.188;2023-02-23T08:51:53;101580.0;;;10.3;96.17
68376;BME280;55318;52.068;5.188;2023-02-23T08:55:07;101586.0;;;10.38;95.49
68376;BME280;55318;52.068;5.188;2023-02-23T08:56:43;101588.0;;;10.47;94.88
68376;BME280;55318;52.068;5.188;2023-02-23T08:58:20;101590.0;;;10.56;95.02
68376;BME280;55318;52.068;5.188;2023-02-23T08:59:57;101595.0;;;10.52;94.63
68376;BME280;55318;52.068;5.188;2023-02-23T09:03:09;101592.0;;;10.68;94.2
68376;BME280;55318;52.068;5.188;2023-02-23T09:04:45;101596.0;;;10.78;93.85
68376;BME280;55318;52.068;5.188;2023-02-23T09:06:23;101598.0;;;10.73;94.17
68376;BME280;55318;52.068;5.188;2023-02-23T09:09:37;101601.0;;;10.73;94.17
68376;BME280;55318;52.068;5.188;2023-02-23T09:11:13;101603.0;;;10.67;93.64
68376;BME280;55318;52.068;5.188;2023-02-23T09:12:50;101608.0;;;10.83;93.5
68376;BME280;55318;52.068;5.188;2023-02-23T09:14:26;101607.0;;;10.83;93.6
68376;BME280;55318;52.068;5.188;2023-02-23T09:17:44;101608.0;;;10.89;93.51
68376;BME280;55318;52.068;5.188;2023-02-23T09:19:20;101608.0;;;10.94;93.28
68376;BME280;55318;52.068;5.188;2023-02-23T09:20:57;101608.0;;;10.99;92.83
68376;BME280;55318;52.068;5.188;2023-02-23T09:24:11;101610.0;;;10.95;93.21
68376;BME280;55318;52.068;5.188;2023-02-23T09:25:47;101611.0;;;10.89;92.35
68376;BME280;55318;52.068;5.188;2023-02-23T09:27:23;101614.0;;;10.73;92.62
68376;BME280;55318;52.068;5.188;2023-02-23T09:30:38;101613.0;;;11.03;92.24
68376;BME280;55318;52.068;5.188;2023-02-23T09:32:15;101614.0;;;10.92;92.7
68376;BME280;55318;52.068;5.188;2023-02-23T09:33:52;101617.0;;;11.03;92.33
68376;BME280;55318;52.068;5.188;2023-02-23T09:35:29;101621.0;;;10.93;92.38
68376;BME280;55318;52.068;5.188;2023-02-23T09:38:41;101626.0;;;10.87;92.06
68376;BME280;55318;52.068;5.188;2023-02-23T09:40:21;101627.0;;;10.88;92.29
68376;BME280;55318;52.068;5.188;2023-02-23T09:42:07;101624.0;;;10.8;91.75
68376;BME280;55318;52.068;5.188;2023-02-23T09:43:55;101630.0;;;10.81;92.19
68376;BME280;55318;52.068;5.188;2023-02-23T09:47:27;101630.0;;;10.8;91.75
68376;BME280;55318;52.068;5.188;2023-02-23T09:49:12;101632.0;;;10.92;92.04
68376;BME280;55318;52.068;5.188;2023-02-23T09:50:52;101630.0;;;10.87;91.84
68376;BME280;55318;52.068;5.188;2023-02-23T09:52:37;101624.0;;;10.98;91.99
68376;BME280;55318;52.068;5.188;2023-02-23T09:54:16;101631.0;;;10.97;92.7
68376;BME280;55318;52.068;5.188;2023-02-23T09:57:37;101632.0;;;11.01;91.84
68376;BME280;55318;52.068;5.188;2023-02-23T09:59:16;101634.0;;;10.93;91.39
68376;BME280;55318;52.068;5.188;2023-02-23T10:03:55;101635.0;;;10.87;91.01
68376;BME280;55318;52.068;5.188;2023-02-23T10:05:39;101633.0;;;10.94;91.05
68376;BME280;55318;52.068;5.188;2023-02-23T10:07:23;101632.0;;;11.07;90.63
68376;BME280;55318;52.068;5.188;2023-02-23T10:09:14;101631.0;;;11.03;91.25
68376;BME280;55318;52.068;5.188;2023-02-23T10:12:51;101632.0;;;10.93;91.07
68376;BME280;55318;52.068;5.188;2023-02-23T10:14:44;101633.0;;;11.12;90.51
68376;BME280;55318;52.068;5.188;2023-02-23T10:16:43;101635.0;;;11.15;90.47
68376;BME280;55318;52.068;5.188;2023-02-23T10:18:36;101641.0;;;11.13;90.42
68376;BME280;55318;52.068;5.188;2023-02-23T10:20:21;101640.0;;;11.0;90.55
68376;BME280;55318;52.068;5.188;2023-02-23T10:22:04;101642.0;;;11.2;89.93
68376;BME280;55318;52.068;5.188;2023-02-23T10:23:46;101643.0;;;11.24;90.96
68376;BME280;55318;52.068;5.188;2023-02-23T10:27:09;101641.0;;;11.17;91.03
68376;BME280;55318;52.068;5.188;2023-02-23T10:28:50;101644.0;;;11.19;90.2
68376;BME280;55318;52.068;5.188;2023-02-23T10:30:31;101647.0;;;11.24;90.01
68376;BME280;55318;52.068;5.188;2023-02-23T10:32:14;101649.0;;;11.24;89.96
68376;BME280;55318;52.068;5.188;2023-02-23T10:35:36;101653.0;;;11.17;89.49
68376;BME280;55318;52.068;5.188;2023-02-23T10:37:15;101655.0;;;11.26;89.41
68376;BME280;55318;52.068;5.188;2023-02-23T10:38:52;101652.0;;;11.44;88.54
68376;BME280;55318;52.068;5.188;2023-02-23T10:40:32;101651.0;;;11.26;88.82
68376;BME280;55318;52.068;5.188;2023-02-23T10:43:52;101651.0;;;11.16;87.8
68376;BME280;55318;52.068;5.188;2023-02-23T10:45:32;101650.0;;;11.15;87.31
68376;BME280;55318;52.068;5.188;2023-02-23T10:47:13;101656.0;;;11.3;87.33
68376;BME280;55318;52.068;5.188;2023-02-23T10:48:51;101655.0;;;11.32;87.87
68376;BME280;55318;52.068;5.188;2023-02-23T10:52:15;101658.0;;;11.25;87.26
68376;BME280;55318;52.068;5.188;2023-02-23T10:54:34;101661.0;;;11.28;87.38
68376;BME280;55318;52.068;5.188;2023-02-23T10:56:12;101667.0;;;11.27;87.39
68376;BME280;55318;52.068;5.188;2023-02-23T10:58:00;101660.0;;;11.24;87.32
68376;BME280;55318;52.068;5.188;2023-02-23T10:59:39;101663.0;;;11.34;86.73
68376;BME280;55318;52.068;5.188;2023-02-23T11:01:39;101662.0;;;11.46;87.07
68376;BME280;55318;52.068;5.188;2023-02-23T11:03:23;101663.0;;;11.37;87.05
68376;BME280;55318;52.068;5.188;2023-02-23T11:06:42;101664.0;;;11.53;87.03
68376;BME280;55318;52.068;5.188;2023-02-23T11:08:22;101658.0;;;11.47;87.69
68376;BME280;55318;52.068;5.188;2023-02-23T11:10:24;101661.0;;;11.45;85.77
68376;BME280;55318;52.068;5.188;2023-02-23T11:12:03;101661.0;;;11.73;85.07
68376;BME280;55318;52.068;5.188;2023-02-23T11:13:54;101655.0;;;11.56;85.8
68376;BME280;55318;52.068;5.188;2023-02-23T11:17:27;101655.0;;;11.65;85.14
68376;BME280;55318;52.068;5.188;2023-02-23T11:19:08;101655.0;;;11.69;84.1
68376;BME280;55318;52.068;5.188;2023-02-23T11:20:54;101656.0;;;11.61;83.42
68376;BME280;55318;52.068;5.188;2023-02-23T11:22:34;101658.0;;;11.64;85.72
68376;BME280;55318;52.068;5.188;2023-02-23T11:24:16;101656.0;;;11.73;86.27
68376;BME280;55318;52.068;5.188;2023-02-23T11:27:44;101664.0;;;11.75;83.52
68376;BME280;55318;52.068;5.188;2023-02-23T11:29:28;101666.0;;;11.67;81.94
68376;BME280;55318;52.068;5.188;2023-02-23T11:31:12;101670.0;;;11.73;80.75
68376;BME280;55318;52.068;5.188;2023-02-23T11:32:53;101671.0;;;11.66;80.7
68376;BME280;55318;52.068;5.188;2023-02-23T11:36:16;101669.0;;;11.76;80.08
68376;BME280;55318;52.068;5.188;2023-02-23T11:37:53;101674.0;;;11.74;80.05
68376;BME280;55318;52.068;5.188;2023-02-23T11:39:29;101673.0;;;11.79;80.44
68376;BME280;55318;52.068;5.188;2023-02-23T11:41:18;101671.0;;;11.64;80.69
68376;BME280;55318;52.068;5.188;2023-02-23T11:46:27;101671.0;;;11.41;81.66
68376;BME280;55318;52.068;5.188;2023-02-23T11:48:04;101671.0;;;11.35;82.2
68376;BME280;55318;52.068;5.188;2023-02-23T11:49:43;101669.0;;;11.14;83.46
68376;BME280;55318;52.068;5.188;2023-02-23T11:51:24;101668.0;;;11.24;84.6
68376;BME280;55318;52.068;5.188;2023-02-23T11:54:48;101661.0;;;10.81;86.91
68376;BME280;55318;52.068;5.188;2023-02-23T11:56:28;101659.0;;;10.71;87.53
68376;BME280;55318;52.068;5.188;2023-02-23T11:58:09;101665.0;;;10.81;87.27
68376;BME280;55318;52.068;5.188;2023-02-23T11:59:58;101661.0;;;10.79;86.74
68376;BME280;55318;52.068;5.188;2023-02-23T12:03:20;101665.0;;;10.9;86.36
68376;BME280;55318;52.068;5.188;2023-02-23T12:05:05;101667.0;;;10.8;86.07
68376;BME280;55318;52.068;5.188;2023-02-23T12:06:44;101663.0;;;10.87;85.58
68376;BME280;55318;52.068;5.188;2023-02-23T12:08:30;101666.0;;;10.91;85.11
68376;BME280;55318;52.068;5.188;2023-02-23T12:10:15;101669.0;;;10.93;85.0
68376;BME280;55318;52.068;5.188;2023-02-23T12:13:41;101665.0;;;10.99;84.91
68376;BME280;55318;52.068;5.188;2023-02-23T12:15:27;101666.0;;;10.94;85.14
68376;BME280;55318;52.068;5.188;2023-02-23T12:17:11;101664.0;;;10.96;85.79
68376;BME280;55318;52.068;5.188;2023-02-23T12:18:55;101662.0;;;10.91;85.84
68376;BME280;55318;52.068;5.188;2023-02-23T12:22:22;101660.0;;;10.87;86.3
68376;BME280;55318;52.068;5.188;2023-02-23T12:24:09;101657.0;;;10.74;86.19
68376;BME280;55318;52.068;5.188;2023-02-23T12:26:05;101658.0;;;10.95;86.36
68376;BME280;55318;52.068;5.188;2023-02-23T12:27:51;101664.0;;;10.96;86.56
68376;BME280;55318;52.068;5.188;2023-02-23T12:29:39;101668.0;;;11.14;86.44
68376;BME280;55318;52.068;5.188;2023-02-23T12:31:22;101667.0;;;11.04;87.08
68376;BME280;55318;52.068;5.188;2023-02-23T12:34:48;101668.0;;;11.03;86.66
68376;BME280;55318;52.068;5.188;2023-02-23T12:36:35;101666.0;;;11.05;86.36
68376;BME280;55318;52.068;5.188;2023-02-23T12:38:20;101668.0;;;11.17;84.89
68376;BME280;55318;52.068;5.188;2023-02-23T12:40:06;101666.0;;;11.06;84.41